Kahuku, Hawaii
Current Conditions -  °F | °C
As of 10:59 PM on Thursday 30 Oct 2014 (Local Time) from PHHI Reporting Station
Few Clouds Few Clouds  
Wind Chill: 73°   Ceiling: Unl
Heat Index: 73°   Visibility: 10mi
Dew Point: 66°   Wind: 10mph
Humidity: 78%   Direction: 80°E
Pressure: 30.09"   Gusts: NA
Location:  21.67°N, 157.94°W
Report Text: PHHI 310859Z AUTO 08009KT 10SM FEW045 23/19 A3009 RMK AO2 RAE0900 $
Loading
Personal Weather Stations






























Interactive Weather Map New forecast layout! Learn more

10-Day Weather Forecast

Advertisements
Track Severe Weather on mobile